sensor_id;sensor_type;location;lat;lon;timestamp;temperature;humidity
70271;SHT31;57680;54.292;18.598;2023-03-31T00:00:45;9.80;88.83
70271;SHT31;57680;54.292;18.598;2023-03-31T00:03:10;9.77;88.83
70271;SHT31;57680;54.292;18.598;2023-03-31T00:05:37;9.72;89.08
70271;SHT31;57680;54.292;18.598;2023-03-31T00:08:02;9.67;89.23
70271;SHT31;57680;54.292;18.598;2023-03-31T00:10:32;9.67;89.36
70271;SHT31;57680;54.292;18.598;2023-03-31T00:12:59;9.74;88.83
70271;SHT31;57680;54.292;18.598;2023-03-31T00:15:25;9.73;88.89
70271;SHT31;57680;54.292;18.598;2023-03-31T00:17:51;9.72;88.55
70271;SHT31;57680;54.292;18.598;2023-03-31T00:20:16;9.79;88.01
70271;SHT31;57680;54.292;18.598;2023-03-31T00:22:42;9.74;88.35
70271;SHT31;57680;54.292;18.598;2023-03-31T00:25:10;9.66;88.64
70271;SHT31;57680;54.292;18.598;2023-03-31T00:27:36;9.67;88.59
70271;SHT31;57680;54.292;18.598;2023-03-31T00:30:01;9.69;88.23
70271;SHT31;57680;54.292;18.598;2023-03-31T00:32:26;9.67;88.30
70271;SHT31;57680;54.292;18.598;2023-03-31T00:34:52;9.63;88.34
70271;SHT31;57680;54.292;18.598;2023-03-31T00:37:17;9.57;88.69
70271;SHT31;57680;54.292;18.598;2023-03-31T00:39:43;9.60;88.66
70271;SHT31;57680;54.292;18.598;2023-03-31T00:42:11;9.69;88.62
70271;SHT31;57680;54.292;18.598;2023-03-31T00:45:16;9.63;88.49
70271;SHT31;57680;54.292;18.598;2023-03-31T00:47:25;9.63;88.46
70271;SHT31;57680;54.292;18.598;2023-03-31T00:49:55;9.63;88.59
70271;SHT31;57680;54.292;18.598;2023-03-31T00:52:29;9.52;88.90
70271;SHT31;57680;54.292;18.598;2023-03-31T00:55:05;9.65;88.62
70271;SHT31;57680;54.292;18.598;2023-03-31T00:57:33;9.62;88.42
70271;SHT31;57680;54.292;18.598;2023-03-31T01:00:05;9.50;88.78
70271;SHT31;57680;54.292;18.598;2023-03-31T01:02:30;9.47;88.66
70271;SHT31;57680;54.292;18.598;2023-03-31T01:04:58;9.49;88.91
70271;SHT31;57680;54.292;18.598;2023-03-31T01:07:29;9.46;89.24
70271;SHT31;57680;54.292;18.598;2023-03-31T01:09:59;9.40;89.22
70271;SHT31;57680;54.292;18.598;2023-03-31T01:12:26;9.32;89.56
70271;SHT31;57680;54.292;18.598;2023-03-31T01:14:52;9.31;89.94
70271;SHT31;57680;54.292;18.598;2023-03-31T01:17:20;9.24;90.00
70271;SHT31;57680;54.292;18.598;2023-03-31T01:47:50;9.04;90.87
70271;SHT31;57680;54.292;18.598;2023-03-31T01:50:44;9.01;91.29
70271;SHT31;57680;54.292;18.598;2023-03-31T01:56:01;8.95;91.26
70271;SHT31;57680;54.292;18.598;2023-03-31T01:58:40;9.00;91.52
70271;SHT31;57680;54.292;18.598;2023-03-31T02:01:40;9.04;91.74
70271;SHT31;57680;54.292;18.598;2023-03-31T02:04:20;9.05;91.50
70271;SHT31;57680;54.292;18.598;2023-03-31T02:06:51;9.08;91.59
70271;SHT31;57680;54.292;18.598;2023-03-31T02:09:22;9.08;91.72
70271;SHT31;57680;54.292;18.598;2023-03-31T02:11:48;9.10;91.85
70271;SHT31;57680;54.292;18.598;2023-03-31T02:14:19;9.08;91.80
70271;SHT31;57680;54.292;18.598;2023-03-31T02:16:46;9.10;91.74
70271;SHT31;57680;54.292;18.598;2023-03-31T02:19:16;9.05;91.82
70271;SHT31;57680;54.292;18.598;2023-03-31T02:21:46;8.98;91.81
70271;SHT31;57680;54.292;18.598;2023-03-31T02:24:14;8.95;91.96
70271;SHT31;57680;54.292;18.598;2023-03-31T02:27:09;8.87;92.02
70271;SHT31;57680;54.292;18.598;2023-03-31T02:29:29;8.80;92.11
70271;SHT31;57680;54.292;18.598;2023-03-31T02:34:54;8.74;92.64
70271;SHT31;57680;54.292;18.598;2023-03-31T02:37:20;8.77;92.70
70271;SHT31;57680;54.292;18.598;2023-03-31T02:39:47;8.70;93.04
70271;SHT31;57680;54.292;18.598;2023-03-31T02:42:14;8.78;93.13
70271;SHT31;57680;54.292;18.598;2023-03-31T02:44:39;8.83;93.29
70271;SHT31;57680;54.292;18.598;2023-03-31T02:47:13;8.89;93.22
70271;SHT31;57680;54.292;18.598;2023-03-31T02:49:42;8.89;93.02
70271;SHT31;57680;54.292;18.598;2023-03-31T02:52:18;8.84;93.16
70271;SHT31;57680;54.292;18.598;2023-03-31T03:13:34;8.78;93.89
70271;SHT31;57680;54.292;18.598;2023-03-31T03:16:26;8.80;93.96
70271;SHT31;57680;54.292;18.598;2023-03-31T03:19:01;8.73;93.68
70271;SHT31;57680;54.292;18.598;2023-03-31T03:21:27;8.74;93.88
70271;SHT31;57680;54.292;18.598;2023-03-31T03:23:52;8.68;93.84
70271;SHT31;57680;54.292;18.598;2023-03-31T03:26:18;8.64;93.82
70271;SHT31;57680;54.292;18.598;2023-03-31T03:28:44;8.64;93.83
70271;SHT31;57680;54.292;18.598;2023-03-31T03:31:09;8.65;94.32
70271;SHT31;57680;54.292;18.598;2023-03-31T03:33:34;8.70;94.17
70271;SHT31;57680;54.292;18.598;2023-03-31T03:36:00;8.70;93.99
70271;SHT31;57680;54.292;18.598;2023-03-31T03:38:25;8.73;94.04
70271;SHT31;57680;54.292;18.598;2023-03-31T03:40:53;8.75;93.84
70271;SHT31;57680;54.292;18.598;2023-03-31T03:43:19;8.71;93.65
70271;SHT31;57680;54.292;18.598;2023-03-31T03:45:48;8.71;93.65
70271;SHT31;57680;54.292;18.598;2023-03-31T03:48:14;8.70;93.69
70271;SHT31;57680;54.292;18.598;2023-03-31T03:50:40;8.65;93.56
70271;SHT31;57680;54.292;18.598;2023-03-31T03:53:05;8.64;93.65
70271;SHT31;57680;54.292;18.598;2023-03-31T03:55:31;8.61;93.56
70271;SHT31;57680;54.292;18.598;2023-03-31T03:57:56;8.56;93.42
70271;SHT31;57680;54.292;18.598;2023-03-31T04:00:22;8.53;93.48
70271;SHT31;57680;54.292;18.598;2023-03-31T04:02:47;8.47;93.65
70271;SHT31;57680;54.292;18.598;2023-03-31T04:05:13;8.43;93.73
70271;SHT31;57680;54.292;18.598;2023-03-31T04:07:38;8.40;93.74
70271;SHT31;57680;54.292;18.598;2023-03-31T04:10:04;8.43;93.92
70271;SHT31;57680;54.292;18.598;2023-03-31T04:12:29;8.43;93.84
70271;SHT31;57680;54.292;18.598;2023-03-31T04:14:55;8.40;93.74
70271;SHT31;57680;54.292;18.598;2023-03-31T04:17:20;8.42;93.91
70271;SHT31;57680;54.292;18.598;2023-03-31T04:19:46;8.43;94.00
70271;SHT31;57680;54.292;18.598;2023-03-31T04:22:11;8.47;93.95
70271;SHT31;57680;54.292;18.598;2023-03-31T04:24:37;8.49;93.93
70271;SHT31;57680;54.292;18.598;2023-03-31T04:27:02;8.53;93.84
70271;SHT31;57680;54.292;18.598;2023-03-31T04:29:28;8.56;93.75
70271;SHT31;57680;54.292;18.598;2023-03-31T04:31:56;8.60;93.75
70271;SHT31;57680;54.292;18.598;2023-03-31T04:34:21;8.61;93.50
70271;SHT31;57680;54.292;18.598;2023-03-31T04:36:47;8.65;93.29
70271;SHT31;57680;54.292;18.598;2023-03-31T04:39:17;8.68;93.28
70271;SHT31;57680;54.292;18.598;2023-03-31T04:41:43;8.73;93.05
70271;SHT31;57680;54.292;18.598;2023-03-31T04:44:09;8.80;92.65
70271;SHT31;57680;54.292;18.598;2023-03-31T04:46:35;8.83;92.31
70271;SHT31;57680;54.292;18.598;2023-03-31T04:49:00;8.85;92.15
70271;SHT31;57680;54.292;18.598;2023-03-31T04:51:26;8.87;91.92
70271;SHT31;57680;54.292;18.598;2023-03-31T04:53:51;8.88;91.81
70271;SHT31;57680;54.292;18.598;2023-03-31T04:56:17;8.88;91.66
70271;SHT31;57680;54.292;18.598;2023-03-31T04:58:42;8.97;91.66
70271;SHT31;57680;54.292;18.598;2023-03-31T05:01:08;9.04;91.54
70271;SHT31;57680;54.292;18.598;2023-03-31T05:03:33;9.10;90.99
70271;SHT31;57680;54.292;18.598;2023-03-31T05:05:59;9.16;91.04
70271;SHT31;57680;54.292;18.598;2023-03-31T05:08:24;9.21;90.63
70271;SHT31;57680;54.292;18.598;2023-03-31T05:10:50;9.28;90.61
70271;SHT31;57680;54.292;18.598;2023-03-31T05:13:15;9.26;90.53
70271;SHT31;57680;54.292;18.598;2023-03-31T05:15:41;9.24;90.51
70271;SHT31;57680;54.292;18.598;2023-03-31T05:18:06;9.22;90.60
70271;SHT31;57680;54.292;18.598;2023-03-31T05:20:33;9.24;90.77
70271;SHT31;57680;54.292;18.598;2023-03-31T05:22:58;9.22;90.71
70271;SHT31;57680;54.292;18.598;2023-03-31T05:25:23;9.25;90.65
70271;SHT31;57680;54.292;18.598;2023-03-31T05:27:49;9.29;90.69
70271;SHT31;57680;54.292;18.598;2023-03-31T05:30:16;9.31;90.50
70271;SHT31;57680;54.292;18.598;2023-03-31T05:32:41;9.31;90.49
70271;SHT31;57680;54.292;18.598;2023-03-31T05:35:07;9.32;90.55
70271;SHT31;57680;54.292;18.598;2023-03-31T05:37:33;9.32;90.65
70271;SHT31;57680;54.292;18.598;2023-03-31T05:39:58;9.32;90.36
70271;SHT31;57680;54.292;18.598;2023-03-31T05:42:24;9.34;90.38
70271;SHT31;57680;54.292;18.598;2023-03-31T05:44:49;9.36;90.22
70271;SHT31;57680;54.292;18.598;2023-03-31T05:47:15;9.38;90.10
70271;SHT31;57680;54.292;18.598;2023-03-31T05:49:41;9.43;90.11
70271;SHT31;57680;54.292;18.598;2023-03-31T05:52:07;9.46;90.22
70271;SHT31;57680;54.292;18.598;2023-03-31T05:54:32;9.50;89.74
70271;SHT31;57680;54.292;18.598;2023-03-31T05:56:58;9.52;89.73
70271;SHT31;57680;54.292;18.598;2023-03-31T05:59:24;9.53;89.65
70271;SHT31;57680;54.292;18.598;2023-03-31T06:01:49;9.57;89.47
70271;SHT31;57680;54.292;18.598;2023-03-31T06:04:14;9.63;89.22
70271;SHT31;57680;54.292;18.598;2023-03-31T06:06:40;9.67;88.94
70271;SHT31;57680;54.292;18.598;2023-03-31T06:09:06;9.70;88.96
70271;SHT31;57680;54.292;18.598;2023-03-31T06:11:31;9.77;88.55
70271;SHT31;57680;54.292;18.598;2023-03-31T06:13:57;9.80;88.57
70271;SHT31;57680;54.292;18.598;2023-03-31T06:16:22;9.87;88.70
70271;SHT31;57680;54.292;18.598;2023-03-31T06:18:48;9.93;88.70
70271;SHT31;57680;54.292;18.598;2023-03-31T06:21:15;9.97;88.58
70271;SHT31;57680;54.292;18.598;2023-03-31T06:23:40;9.97;88.35
70271;SHT31;57680;54.292;18.598;2023-03-31T06:26:07;9.98;88.22
70271;SHT31;57680;54.292;18.598;2023-03-31T06:28:34;9.97;88.39
70271;SHT31;57680;54.292;18.598;2023-03-31T06:31:11;9.94;88.36
70271;SHT31;57680;54.292;18.598;2023-03-31T06:33:38;9.91;88.15
70271;SHT31;57680;54.292;18.598;2023-03-31T06:36:05;9.93;88.25
70271;SHT31;57680;54.292;18.598;2023-03-31T06:38:31;9.89;88.44
70271;SHT31;57680;54.292;18.598;2023-03-31T06:40:56;9.80;88.75
70271;SHT31;57680;54.292;18.598;2023-03-31T06:43:22;9.79;88.89
70271;SHT31;57680;54.292;18.598;2023-03-31T06:45:48;9.76;89.01
70271;SHT31;57680;54.292;18.598;2023-03-31T06:48:13;9.79;89.47
70271;SHT31;57680;54.292;18.598;2023-03-31T06:50:40;9.83;89.28
70271;SHT31;57680;54.292;18.598;2023-03-31T06:53:06;9.84;89.10
70271;SHT31;57680;54.292;18.598;2023-03-31T06:55:31;9.93;89.28
70271;SHT31;57680;54.292;18.598;2023-03-31T06:57:57;9.98;88.63
70271;SHT31;57680;54.292;18.598;2023-03-31T07:00:22;10.01;88.83
70271;SHT31;57680;54.292;18.598;2023-03-31T07:02:47;10.03;88.63
70271;SHT31;57680;54.292;18.598;2023-03-31T07:05:13;10.07;88.76
70271;SHT31;57680;54.292;18.598;2023-03-31T07:07:38;10.10;88.75
70271;SHT31;57680;54.292;18.598;2023-03-31T07:10:04;10.13;88.31
70271;SHT31;57680;54.292;18.598;2023-03-31T07:12:32;10.13;88.62
70271;SHT31;57680;54.292;18.598;2023-03-31T07:14:58;10.11;88.56
70271;SHT31;57680;54.292;18.598;2023-03-31T07:17:23;10.14;88.12
70271;SHT31;57680;54.292;18.598;2023-03-31T07:19:49;10.22;88.45
70271;SHT31;57680;54.292;18.598;2023-03-31T07:22:14;10.30;87.93
70271;SHT31;57680;54.292;18.598;2023-03-31T07:24:40;10.45;87.70
70271;SHT31;57680;54.292;18.598;2023-03-31T07:27:05;10.58;86.88
70271;SHT31;57680;54.292;18.598;2023-03-31T07:29:30;10.72;86.48
70271;SHT31;57680;54.292;18.598;2023-03-31T07:31:56;10.91;86.31
70271;SHT31;57680;54.292;18.598;2023-03-31T07:34:21;11.10;85.89
70271;SHT31;57680;54.292;18.598;2023-03-31T07:36:47;11.28;85.10
70271;SHT31;57680;54.292;18.598;2023-03-31T07:39:12;11.51;84.19
70271;SHT31;57680;54.292;18.598;2023-03-31T07:41:38;11.57;83.51
70271;SHT31;57680;54.292;18.598;2023-03-31T07:44:03;11.65;83.49
70271;SHT31;57680;54.292;18.598;2023-03-31T07:46:29;11.64;83.05
70271;SHT31;57680;54.292;18.598;2023-03-31T07:48:55;11.61;83.93
70271;SHT31;57680;54.292;18.598;2023-03-31T07:51:24;11.47;83.29
70271;SHT31;57680;54.292;18.598;2023-03-31T07:53:50;11.47;83.07
70271;SHT31;57680;54.292;18.598;2023-03-31T07:56:15;11.51;82.73
70271;SHT31;57680;54.292;18.598;2023-03-31T07:58:41;11.70;82.85
70271;SHT31;57680;54.292;18.598;2023-03-31T08:01:07;11.79;82.09
70271;SHT31;57680;54.292;18.598;2023-03-31T08:03:32;12.06;82.53
70271;SHT31;57680;54.292;18.598;2023-03-31T08:05:58;12.15;80.95
70271;SHT31;57680;54.292;18.598;2023-03-31T08:08:23;12.13;79.88
70271;SHT31;57680;54.292;18.598;2023-03-31T08:10:49;12.08;80.26
70271;SHT31;57680;54.292;18.598;2023-03-31T08:13:14;11.91;80.61
70271;SHT31;57680;54.292;18.598;2023-03-31T08:15:40;11.86;80.39
70271;SHT31;57680;54.292;18.598;2023-03-31T08:18:05;11.86;81.08
70271;SHT31;57680;54.292;18.598;2023-03-31T08:20:31;11.94;80.55
70271;SHT31;57680;54.292;18.598;2023-03-31T08:22:56;12.08;79.72
70271;SHT31;57680;54.292;18.598;2023-03-31T08:25:22;12.05;79.40
70271;SHT31;57680;54.292;18.598;2023-03-31T08:27:47;12.02;79.73
70271;SHT31;57680;54.292;18.598;2023-03-31T08:30:13;12.05;80.02
70271;SHT31;57680;54.292;18.598;2023-03-31T08:32:38;12.13;79.70
70271;SHT31;57680;54.292;18.598;2023-03-31T08:35:05;12.32;78.61
70271;SHT31;57680;54.292;18.598;2023-03-31T08:37:31;12.23;78.18
70271;SHT31;57680;54.292;18.598;2023-03-31T08:39:56;12.23;77.69
70271;SHT31;57680;54.292;18.598;2023-03-31T08:42:43;12.23;78.12
70271;SHT31;57680;54.292;18.598;2023-03-31T08:45:29;12.40;77.79
70271;SHT31;57680;54.292;18.598;2023-03-31T08:48:12;12.63;77.27
70271;SHT31;57680;54.292;18.598;2023-03-31T08:50:46;12.70;76.62
70271;SHT31;57680;54.292;18.598;2023-03-31T08:55:49;12.64;75.25
70271;SHT31;57680;54.292;18.598;2023-03-31T09:01:01;13.12;74.67
70271;SHT31;57680;54.292;18.598;2023-03-31T09:06:01;13.05;74.28
70271;SHT31;57680;54.292;18.598;2023-03-31T09:08:40;13.08;74.42
70271;SHT31;57680;54.292;18.598;2023-03-31T09:14:00;12.85;73.44
70271;SHT31;57680;54.292;18.598;2023-03-31T09:16:45;12.70;74.22
70271;SHT31;57680;54.292;18.598;2023-03-31T09:19:33;12.70;74.70
70271;SHT31;57680;54.292;18.598;2023-03-31T09:22:00;12.87;75.58
70271;SHT31;57680;54.292;18.598;2023-03-31T09:24:30;13.00;73.60
70271;SHT31;57680;54.292;18.598;2023-03-31T09:27:02;13.01;73.76
70271;SHT31;57680;54.292;18.598;2023-03-31T09:29:42;12.87;73.08
70271;SHT31;57680;54.292;18.598;2023-03-31T09:32:16;12.80;74.26
70271;SHT31;57680;54.292;18.598;2023-03-31T09:34:43;12.76;74.90
70271;SHT31;57680;54.292;18.598;2023-03-31T09:37:11;13.05;74.93
70271;SHT31;57680;54.292;18.598;2023-03-31T09:39:37;13.41;73.95
70271;SHT31;57680;54.292;18.598;2023-03-31T09:42:03;13.43;73.00
70271;SHT31;57680;54.292;18.598;2023-03-31T09:44:42;13.32;71.36
70271;SHT31;57680;54.292;18.598;2023-03-31T09:47:36;13.26;71.31
70271;SHT31;57680;54.292;18.598;2023-03-31T09:49:59;13.11;71.73
70271;SHT31;57680;54.292;18.598;2023-03-31T09:52:29;12.91;72.48
70271;SHT31;57680;54.292;18.598;2023-03-31T09:54:58;12.77;73.17
70271;SHT31;57680;54.292;18.598;2023-03-31T09:57:32;12.72;73.95
70271;SHT31;57680;54.292;18.598;2023-03-31T10:00:04;12.66;73.64
70271;SHT31;57680;54.292;18.598;2023-03-31T10:02:36;12.68;73.77
70271;SHT31;57680;54.292;18.598;2023-03-31T10:05:06;12.64;73.90
70271;SHT31;57680;54.292;18.598;2023-03-31T10:07:33;12.60;73.70
70271;SHT31;57680;54.292;18.598;2023-03-31T10:09:59;12.56;74.81
70271;SHT31;57680;54.292;18.598;2023-03-31T10:12:27;12.46;74.31
70271;SHT31;57680;54.292;18.598;2023-03-31T10:15:02;12.43;74.79
70271;SHT31;57680;54.292;18.598;2023-03-31T10:17:40;12.25;75.70
70271;SHT31;57680;54.292;18.598;2023-03-31T10:20:19;12.18;76.10
70271;SHT31;57680;54.292;18.598;2023-03-31T10:22:49;12.01;77.38
70271;SHT31;57680;54.292;18.598;2023-03-31T10:25:19;11.89;77.81
70271;SHT31;57680;54.292;18.598;2023-03-31T10:27:52;11.92;77.79
70271;SHT31;57680;54.292;18.598;2023-03-31T10:30:22;11.81;78.82
70271;SHT31;57680;54.292;18.598;2023-03-31T10:32:48;11.82;78.98
70271;SHT31;57680;54.292;18.598;2023-03-31T10:35:26;11.84;78.08
70271;SHT31;57680;54.292;18.598;2023-03-31T10:37:56;11.88;78.48
70271;SHT31;57680;54.292;18.598;2023-03-31T10:40:25;11.89;78.12
70271;SHT31;57680;54.292;18.598;2023-03-31T10:43:13;11.94;78.61
70271;SHT31;57680;54.292;18.598;2023-03-31T10:45:48;11.86;80.11
70271;SHT31;57680;54.292;18.598;2023-03-31T10:48:26;11.70;81.09
70271;SHT31;57680;54.292;18.598;2023-03-31T10:50:54;11.71;81.55
70271;SHT31;57680;54.292;18.598;2023-03-31T10:53:22;11.77;82.01
70271;SHT31;57680;54.292;18.598;2023-03-31T11:00:59;12.29;80.39
70271;SHT31;57680;54.292;18.598;2023-03-31T11:06:44;12.50;78.63
70271;SHT31;57680;54.292;18.598;2023-03-31T11:09:15;12.66;78.23
70271;SHT31;57680;54.292;18.598;2023-03-31T11:14:41;13.00;76.97
70271;SHT31;57680;54.292;18.598;2023-03-31T11:17:33;13.05;75.37
70271;SHT31;57680;54.292;18.598;2023-03-31T11:22:49;13.24;74.23
70271;SHT31;57680;54.292;18.598;2023-03-31T11:25:32;13.26;73.26
70271;SHT31;57680;54.292;18.598;2023-03-31T11:31:32;13.51;71.30
70271;SHT31;57680;54.292;18.598;2023-03-31T11:39:46;13.55;72.05
70271;SHT31;57680;54.292;18.598;2023-03-31T11:45:17;13.24;73.27
70271;SHT31;57680;54.292;18.598;2023-03-31T11:47:45;13.11;74.26
70271;SHT31;57680;54.292;18.598;2023-03-31T11:50:20;12.90;76.12
70271;SHT31;57680;54.292;18.598;2023-03-31T11:53:19;12.67;78.71
70271;SHT31;57680;54.292;18.598;2023-03-31T11:55:47;12.84;79.72
70271;SHT31;57680;54.292;18.598;2023-03-31T11:58:32;13.24;80.63
70271;SHT31;57680;54.292;18.598;2023-03-31T12:01:07;13.38;79.85
70271;SHT31;57680;54.292;18.598;2023-03-31T12:06:23;13.08;78.96
70271;SHT31;57680;54.292;18.598;2023-03-31T12:09:20;13.00;79.73
70271;SHT31;57680;54.292;18.598;2023-03-31T12:11:55;13.14;80.51
70271;SHT31;57680;54.292;18.598;2023-03-31T12:14:34;13.36;79.80
70271;SHT31;57680;54.292;18.598;2023-03-31T12:17:14;13.58;78.74
70271;SHT31;57680;54.292;18.598;2023-03-31T12:19:55;13.58;77.33
70271;SHT31;57680;54.292;18.598;2023-03-31T12:22:34;13.55;79.28
70271;SHT31;57680;54.292;18.598;2023-03-31T12:25:01;13.62;78.61
70271;SHT31;57680;54.292;18.598;2023-03-31T12:27:29;13.69;77.43
70271;SHT31;57680;54.292;18.598;2023-03-31T12:32:38;13.67;75.99
70271;SHT31;57680;54.292;18.598;2023-03-31T12:35:26;13.63;75.09
70271;SHT31;57680;54.292;18.598;2023-03-31T12:40:45;13.61;74.73
70271;SHT31;57680;54.292;18.598;2023-03-31T12:51:57;13.01;78.73
70271;SHT31;57680;54.292;18.598;2023-03-31T12:59:40;12.60;81.92
70271;SHT31;57680;54.292;18.598;2023-03-31T13:04:35;12.60;82.69
70271;SHT31;57680;54.292;18.598;2023-03-31T13:07:02;12.60;82.59
70271;SHT31;57680;54.292;18.598;2023-03-31T13:09:48;12.66;82.62
70271;SHT31;57680;54.292;18.598;2023-03-31T13:12:18;12.64;81.27
70271;SHT31;57680;54.292;18.598;2023-03-31T13:14:49;12.63;82.01
70271;SHT31;57680;54.292;18.598;2023-03-31T13:17:30;12.66;82.40
70271;SHT31;57680;54.292;18.598;2023-03-31T13:22:46;12.53;83.69
70271;SHT31;57680;54.292;18.598;2023-03-31T13:30:54;12.36;85.62
70271;SHT31;57680;54.292;18.598;2023-03-31T13:33:23;12.33;85.96
70271;SHT31;57680;54.292;18.598;2023-03-31T13:35:53;12.33;86.01
70271;SHT31;57680;54.292;18.598;2023-03-31T13:41:18;12.30;86.34
70271;SHT31;57680;54.292;18.598;2023-03-31T13:44:15;12.15;85.57
70271;SHT31;57680;54.292;18.598;2023-03-31T13:52:12;11.94;86.28
70271;SHT31;57680;54.292;18.598;2023-03-31T13:54:53;11.84;86.68
70271;SHT31;57680;54.292;18.598;2023-03-31T13:58:01;11.81;87.16
70271;SHT31;57680;54.292;18.598;2023-03-31T14:05:49;11.51;88.67
70271;SHT31;57680;54.292;18.598;2023-03-31T14:08:36;11.28;87.70
70271;SHT31;57680;54.292;18.598;2023-03-31T14:13:41;10.66;88.94
70271;SHT31;57680;54.292;18.598;2023-03-31T14:16:07;10.45;90.31
70271;SHT31;57680;54.292;18.598;2023-03-31T14:18:35;10.25;91.32
70271;SHT31;57680;54.292;18.598;2023-03-31T14:24:06;9.96;92.35
70271;SHT31;57680;54.292;18.598;2023-03-31T14:29:19;9.67;93.82
70271;SHT31;57680;54.292;18.598;2023-03-31T14:37:20;9.56;94.91
70271;SHT31;57680;54.292;18.598;2023-03-31T14:39:46;9.56;95.05
70271;SHT31;57680;54.292;18.598;2023-03-31T14:42:18;9.55;95.32
70271;SHT31;57680;54.292;18.598;2023-03-31T14:44:45;9.50;95.19
70271;SHT31;57680;54.292;18.598;2023-03-31T14:47:15;9.43;95.31
70271;SHT31;57680;54.292;18.598;2023-03-31T14:49:43;9.39;95.70
70271;SHT31;57680;54.292;18.598;2023-03-31T14:52:15;9.36;95.79
70271;SHT31;57680;54.292;18.598;2023-03-31T14:54:43;9.38;95.78
70271;SHT31;57680;54.292;18.598;2023-03-31T14:57:10;9.36;95.87
70271;SHT31;57680;54.292;18.598;2023-03-31T14:59:37;9.36;96.04
70271;SHT31;57680;54.292;18.598;2023-03-31T15:02:05;9.42;95.78
70271;SHT31;57680;54.292;18.598;2023-03-31T15:04:39;9.35;95.35
70271;SHT31;57680;54.292;18.598;2023-03-31T15:07:06;9.29;95.54
70271;SHT31;57680;54.292;18.598;2023-03-31T15:09:33;9.24;95.56
70271;SHT31;57680;54.292;18.598;2023-03-31T15:12:02;9.25;95.77
70271;SHT31;57680;54.292;18.598;2023-03-31T15:14:34;9.24;95.91
70271;SHT31;57680;54.292;18.598;2023-03-31T15:17:00;9.24;95.89
70271;SHT31;57680;54.292;18.598;2023-03-31T15:19:33;9.18;95.96
70271;SHT31;57680;54.292;18.598;2023-03-31T15:22:21;9.19;95.88
70271;SHT31;57680;54.292;18.598;2023-03-31T15:24:46;9.22;96.22
70271;SHT31;57680;54.292;18.598;2023-03-31T15:27:30;9.26;96.01
70271;SHT31;57680;54.292;18.598;2023-03-31T15:29:58;9.24;96.00
70271;SHT31;57680;54.292;18.598;2023-03-31T15:32:29;9.21;96.03
70271;SHT31;57680;54.292;18.598;2023-03-31T15:34:55;9.18;96.33
70271;SHT31;57680;54.292;18.598;2023-03-31T15:37:24;9.19;96.19
70271;SHT31;57680;54.292;18.598;2023-03-31T15:39:51;9.16;96.47
70271;SHT31;57680;54.292;18.598;2023-03-31T15:42:19;9.16;96.35
70271;SHT31;57680;54.292;18.598;2023-03-31T15:44:47;9.14;96.47
70271;SHT31;57680;54.292;18.598;2023-03-31T15:47:27;9.12;96.49
70271;SHT31;57680;54.292;18.598;2023-03-31T15:49:56;9.10;96.43
70271;SHT31;57680;54.292;18.598;2023-03-31T15:52:31;9.07;96.52
70271;SHT31;57680;54.292;18.598;2023-03-31T15:54:59;9.00;96.37
70271;SHT31;57680;54.292;18.598;2023-03-31T15:57:34;8.97;96.57
70271;SHT31;57680;54.292;18.598;2023-03-31T16:00:00;8.95;96.71
70271;SHT31;57680;54.292;18.598;2023-03-31T16:02:41;8.95;96.88
70271;SHT31;57680;54.292;18.598;2023-03-31T16:05:23;8.91;96.85
70271;SHT31;57680;54.292;18.598;2023-03-31T16:07:54;8.85;96.82
70271;SHT31;57680;54.292;18.598;2023-03-31T16:10:21;8.80;96.92
70271;SHT31;57680;54.292;18.598;2023-03-31T16:12:58;8.73;97.06
70271;SHT31;57680;54.292;18.598;2023-03-31T16:15:47;8.68;97.41
70271;SHT31;57680;54.292;18.598;2023-03-31T16:18:24;8.65;97.52
70271;SHT31;57680;54.292;18.598;2023-03-31T16:20:55;8.59;97.44
70271;SHT31;57680;54.292;18.598;2023-03-31T16:23:26;8.52;97.42
70271;SHT31;57680;54.292;18.598;2023-03-31T16:25:53;8.42;97.35
70271;SHT31;57680;54.292;18.598;2023-03-31T16:28:26;8.29;97.03
70271;SHT31;57680;54.292;18.598;2023-03-31T16:30:53;8.17;97.43
70271;SHT31;57680;54.292;18.598;2023-03-31T16:33:20;8.12;97.48
70271;SHT31;57680;54.292;18.598;2023-03-31T16:35:48;8.02;97.64
70271;SHT31;57680;54.292;18.598;2023-03-31T16:38:14;8.01;97.66
70271;SHT31;57680;54.292;18.598;2023-03-31T16:40:42;7.95;97.84
70271;SHT31;57680;54.292;18.598;2023-03-31T16:43:16;7.89;97.76
70271;SHT31;57680;54.292;18.598;2023-03-31T16:45:46;7.85;97.61
70271;SHT31;57680;54.292;18.598;2023-03-31T16:48:16;7.81;97.68
70271;SHT31;57680;54.292;18.598;2023-03-31T16:50:43;7.77;97.79
70271;SHT31;57680;54.292;18.598;2023-03-31T16:53:11;7.75;98.07
70271;SHT31;57680;54.292;18.598;2023-03-31T16:55:37;7.77;98.07
70271;SHT31;57680;54.292;18.598;2023-03-31T16:58:02;7.68;97.93
70271;SHT31;57680;54.292;18.598;2023-03-31T17:00:29;7.70;98.08
70271;SHT31;57680;54.292;18.598;2023-03-31T17:02:55;7.65;98.04
70271;SHT31;57680;54.292;18.598;2023-03-31T17:05:20;7.63;98.27
70271;SHT31;57680;54.292;18.598;2023-03-31T17:07:45;7.60;98.37
70271;SHT31;57680;54.292;18.598;2023-03-31T17:10:11;7.64;98.20
70271;SHT31;57680;54.292;18.598;2023-03-31T17:12:36;7.60;97.96
70271;SHT31;57680;54.292;18.598;2023-03-31T17:15:02;7.54;98.05
70271;SHT31;57680;54.292;18.598;2023-03-31T17:17:28;7.53;98.14
70271;SHT31;57680;54.292;18.598;2023-03-31T17:19:53;7.51;98.27
70271;SHT31;57680;54.292;18.598;2023-03-31T17:22:19;7.48;98.35
70271;SHT31;57680;54.292;18.598;2023-03-31T17:24:44;7.47;98.22
70271;SHT31;57680;54.292;18.598;2023-03-31T17:27:10;7.50;98.35
70271;SHT31;57680;54.292;18.598;2023-03-31T17:29:35;7.53;98.51
70271;SHT31;57680;54.292;18.598;2023-03-31T17:32:01;7.57;98.58
70271;SHT31;57680;54.292;18.598;2023-03-31T17:34:26;7.60;98.60
70271;SHT31;57680;54.292;18.598;2023-03-31T17:36:52;7.64;98.57
70271;SHT31;57680;54.292;18.598;2023-03-31T17:39:17;7.63;98.53
70271;SHT31;57680;54.292;18.598;2023-03-31T17:41:42;7.64;98.69
70271;SHT31;57680;54.292;18.598;2023-03-31T17:44:08;7.64;98.72
70271;SHT31;57680;54.292;18.598;2023-03-31T17:46:34;7.65;98.67
70271;SHT31;57680;54.292;18.598;2023-03-31T17:48:59;7.70;98.79
70271;SHT31;57680;54.292;18.598;2023-03-31T17:51:25;7.68;98.61
70271;SHT31;57680;54.292;18.598;2023-03-31T17:53:51;7.67;98.61
70271;SHT31;57680;54.292;18.598;2023-03-31T17:56:16;7.67;98.63
70271;SHT31;57680;54.292;18.598;2023-03-31T17:58:43;7.65;98.63
70271;SHT31;57680;54.292;18.598;2023-03-31T18:01:09;7.65;98.74
70271;SHT31;57680;54.292;18.598;2023-03-31T18:03:37;7.65;98.71
70271;SHT31;57680;54.292;18.598;2023-03-31T18:06:09;7.64;98.45
70271;SHT31;57680;54.292;18.598;2023-03-31T18:08:36;7.54;97.95